Port Hope Simpson, Canada
Current Conditions -  °F | °C
As of 9:00 PM on Saturday 25 Oct 2014 (Local Time) from CYMH Reporting Station
Overcast Overcast  
Wind Chill: 27°   Ceiling: 3100
Heat Index: 37°   Visibility: 9mi
Dew Point: 30°   Wind: 18mph
Humidity: 75%   Direction: 50°NE
Pressure: 29.85"   Gusts: 24mph
Location:  52.53°N, 56.3°W
Report Text: CYMH 260000Z AUTO 05016G21KT 9SM OVC031 03/M01 A2985 RMK SLP108
Loading
Personal Weather Stations






























Interactive Weather Map
Tropical Storm Tracking
New forecast layout! Learn more

10-Day Weather Forecast

Advertisements
Track Severe Weather on mobile